KDMN/DMN METAR and TAF weather

Enter ICAO airport designator
Station Type Date Time Source
KDMN METAR 2019/04/19 21:53 UTC NOAA

KDMN 192153Z AUTO 15006KT 10SM CLR 28/M11 A3009 RMK AO2 SLP132 T02831111


Station Type Date Time Source
KDMN Decoded METAR 2019/04/19 21:53 UTC NOAA

DEMING MUNICIPAL AIRPORT, NM, United States (KDMN) 32-16N 107-43W 1311M
Apr 19, 2019 - 05:53 PM EDT / 2019.04.19 2153 UTC
Wind: from the SSE (150 degrees) at 7 MPH (6 KT):0
Visibility: 10 mile(s):0
Sky conditions: clear
Temperature: 82.9 F (28.3 C)
Dew Point: 12.0 F (-11.1 C)
Relative Humidity: 6%
Pressure (altimeter): 30.09 in. Hg (1018 hPa)
ob: KDMN 192153Z AUTO 15006KT 10SM CLR 28/M11 A3009 RMK AO2 SLP132 T02831111
cycle: 22

Station Type Date Time Source
KDMN TAF 2019/04/19 18:22 UTC NOAA

TAF KDMN 191720Z 1918/2018 11010KT P6SM SKC
FM192000 15010G18KT P6SM SKC
FM200200 06007KT P6SM FEW250
FM201600 22010KT P6SM SCT150

Example: see airport list